createdAt,value
2018-07-06T01:24:16.049Z,99.99
2018-07-06T01:31:54.510Z,99.99
2018-07-06T01:33:53.873Z,99.99
2018-07-06T01:36:53.977Z,99.99
2018-07-06T01:40:54.326Z,99.99
2018-07-06T01:49:54.531Z,99.99
2018-07-06T01:50:54.686Z,99.99
2018-07-06T03:21:42.714Z,99.99
2018-07-06T03:42:39.084Z,99.99
2018-07-06T03:43:38.919Z,99.99
2018-07-06T03:48:39.306Z,99.99
2018-07-06T04:39:25.980Z,99.99
2018-07-06T04:43:27.643Z,99.99
2018-07-06T04:44:27.572Z,99.99
2018-07-06T04:46:27.124Z,99.99
2018-07-06T04:48:26.509Z,99.99
2018-07-06T04:53:27.292Z,99.99
2018-07-06T04:57:26.612Z,99.99
2018-07-06T04:58:26.649Z,99.99
2018-07-06T04:59:26.682Z,99.99
2018-07-06T05:00:26.719Z,99.99
2018-07-06T05:02:27.619Z,99.99
2018-07-06T05:08:29.459Z,99.99
2018-07-06T05:11:27.543Z,99.99
2018-07-06T05:12:27.156Z,99.99
2018-07-06T05:13:27.193Z,99.99
2018-07-06T05:14:27.229Z,99.99
2018-07-06T05:15:27.265Z,99.99
2018-07-06T05:17:27.564Z,99.99
2018-07-06T05:18:27.379Z,99.99
2018-07-06T05:20:28.785Z,99.99
2018-07-06T05:22:27.522Z,99.99
2018-07-06T05:23:27.558Z,99.99
2018-07-06T05:27:27.703Z,99.99
2018-07-06T05:28:27.741Z,99.99
2018-07-06T05:29:27.779Z,99.99
2018-07-06T05:30:27.817Z,99.99
2018-07-06T05:31:27.850Z,99.99
2018-07-06T05:32:27.887Z,99.99
2018-07-06T05:33:27.923Z,99.99
2018-07-06T05:34:27.960Z,99.99
2018-07-06T05:35:28.013Z,99.99
2018-07-06T05:36:28.034Z,99.99
2018-07-06T05:37:28.091Z,99.99
2018-07-06T05:41:28.216Z,99.99
2018-07-06T05:42:28.254Z,99.99
2018-07-06T05:43:28.289Z,99.99
2018-07-06T05:44:28.346Z,99.99
2018-07-06T05:45:28.383Z,99.99
2018-07-06T05:46:28.402Z,99.99
2018-07-06T05:47:28.457Z,99.99
2018-07-06T05:48:28.474Z,99.99
2018-07-06T05:49:28.734Z,99.99
2018-07-06T05:52:28.640Z,99.99
2018-07-06T05:53:28.658Z,99.99
2018-07-06T05:54:28.694Z,99.99
2018-07-06T05:55:28.731Z,99.99
2018-07-06T05:56:28.768Z,99.99
2018-07-06T05:57:28.806Z,99.99
2018-07-06T05:58:28.842Z,99.99
2018-07-06T05:59:28.880Z,99.99
2018-07-06T06:00:29.339Z,99.99
2018-07-06T06:02:29.007Z,99.99
2018-07-06T06:03:29.028Z,99.99
2018-07-06T06:04:29.391Z,99.99
2018-07-06T06:05:29.526Z,99.99
2018-07-06T06:06:29.157Z,99.99
2018-07-06T06:07:29.177Z,99.99
2018-07-06T06:09:29.270Z,99.99
2018-07-06T06:10:29.287Z,99.99
2018-07-06T06:11:29.324Z,99.99
2018-07-06T06:12:29.360Z,99.99
2018-07-06T06:13:29.402Z,99.99
2018-07-06T06:14:29.636Z,99.99
2018-07-06T06:15:29.490Z,99.99
2018-07-06T06:16:29.528Z,99.99
2018-07-06T06:17:29.545Z,99.99
2018-07-06T06:18:29.647Z,99.99
2018-07-06T06:19:29.619Z,99.99
2018-07-06T06:20:29.676Z,99.99
2018-07-06T06:21:29.696Z,99.99
2018-07-06T06:22:29.729Z,99.99
2018-07-06T06:23:29.767Z,99.99
2018-07-06T06:24:29.805Z,99.99
2018-07-06T06:25:29.845Z,99.99
2018-07-06T06:26:29.904Z,99.99
2018-07-06T06:27:29.933Z,99.99
2018-07-06T06:28:29.953Z,99.99
2018-07-06T06:30:30.246Z,99.99
2018-07-06T06:31:30.064Z,99.99
2018-07-06T06:32:30.104Z,99.99
2018-07-06T06:33:30.233Z,99.99
2018-07-06T06:34:30.192Z,99.99
2018-07-06T06:35:30.212Z,99.99
2018-07-06T06:36:30.249Z,99.99
2018-07-06T06:37:30.286Z,99.99
2018-07-06T06:38:30.322Z,99.99
2018-07-06T06:39:30.413Z,99.99
2018-07-06T06:40:30.397Z,99.99
2018-07-06T06:41:30.437Z,99.99
2018-07-06T06:42:30.472Z,99.99
2018-07-06T06:43:30.540Z,99.99
2018-07-06T06:44:30.547Z,99.99
2018-07-06T06:45:30.584Z,99.99
2018-07-06T06:46:30.655Z,99.99
2018-07-06T06:47:30.657Z,99.99
2018-07-06T06:48:30.717Z,99.99
2018-07-06T06:49:30.734Z,99.99
2018-07-06T06:50:31.297Z,99.99
2018-07-06T06:51:30.808Z,99.99
2018-07-06T06:52:30.862Z,99.99
2018-07-06T06:53:30.883Z,99.99
2018-07-06T06:54:30.918Z,99.99
2018-07-06T06:55:30.975Z,99.99
2018-07-06T06:56:31.011Z,99.99
2018-07-06T06:57:31.034Z,99.99
2018-07-06T06:58:31.067Z,99.99
2018-07-06T06:59:31.107Z,99.99
2018-07-06T07:00:31.145Z,99.99
2018-07-06T07:01:31.181Z,99.99
2018-07-06T07:02:31.223Z,99.99
2018-07-06T07:03:31.256Z,99.99
2018-07-06T07:04:31.293Z,99.99
2018-07-06T07:05:31.332Z,99.99
2018-07-06T07:06:31.369Z,99.99
2018-07-06T07:07:31.490Z,99.99
2018-07-06T07:08:31.442Z,99.99
2018-07-06T07:09:31.480Z,99.99
2018-07-06T07:10:31.517Z,99.99
2018-07-06T07:11:31.554Z,99.99
2018-07-06T07:12:31.614Z,99.99
2018-07-06T07:13:31.632Z,99.99
2018-07-06T07:14:31.689Z,99.99
2018-07-06T07:15:31.704Z,99.99
2018-07-06T07:16:31.758Z,99.99
2018-07-06T07:17:31.780Z,99.99
2018-07-06T07:19:31.872Z,99.99
2018-07-06T07:20:31.892Z,99.99
2018-07-06T07:21:31.945Z,99.99
2018-07-06T07:22:31.983Z,99.99
2018-07-06T07:24:32.044Z,99.99
2018-07-06T07:25:32.080Z,99.99
2018-07-06T07:26:32.117Z,99.99
2018-07-06T07:27:32.155Z,99.99
2018-07-06T07:28:32.192Z,99.99
2018-07-06T07:29:32.229Z,99.99
2018-07-06T07:30:32.266Z,99.99
2018-07-06T07:31:32.304Z,99.99
2018-07-06T07:32:32.343Z,99.99
2018-07-06T07:33:32.379Z,99.99
2018-07-06T07:34:32.417Z,99.99
2018-07-06T07:35:32.454Z,99.99
2018-07-06T07:36:32.491Z,99.99
2018-07-06T07:37:32.529Z,99.99
2018-07-06T07:38:32.565Z,99.99
2018-07-06T07:39:32.605Z,99.99
2018-07-06T07:40:32.641Z,99.99
2018-07-06T07:41:32.679Z,99.99
2018-07-06T07:42:32.715Z,99.99
2018-07-06T07:43:32.752Z,99.99
2018-07-06T07:44:32.791Z,99.99
2018-07-06T07:45:32.827Z,99.99
2018-07-06T07:46:32.922Z,99.99
2018-07-06T07:47:32.902Z,99.99
2018-07-06T07:48:32.944Z,99.99
2018-07-06T07:49:32.999Z,99.99
2018-07-06T07:50:33.034Z,99.99
2018-07-06T07:51:33.051Z,99.99
2018-07-06T07:52:33.090Z,99.99
2018-07-06T07:53:33.127Z,99.99
2018-07-06T07:54:33.203Z,99.99
2018-07-06T07:55:33.201Z,99.99
2018-07-06T07:56:33.237Z,99.99
2018-07-06T07:57:33.276Z,99.99
2018-07-06T07:58:33.328Z,99.99
2018-07-06T07:59:33.568Z,99.99
2018-07-06T08:00:33.515Z,99.99
2018-07-06T08:01:33.477Z,99.99
2018-07-06T08:02:33.483Z,99.99
2018-07-06T08:03:33.518Z,99.99
2018-07-06T08:04:33.556Z,99.99
2018-07-06T08:05:33.576Z,99.99
2018-07-06T08:06:33.660Z,99.99
2018-07-06T08:07:33.650Z,99.99
2018-07-06T08:08:33.686Z,99.99
2018-07-06T08:09:33.724Z,99.99
2018-07-06T08:10:33.759Z,99.99
2018-07-06T08:11:35.446Z,99.99
2018-07-06T08:12:33.835Z,99.99
2018-07-06T08:13:33.874Z,99.99
2018-07-06T08:14:33.962Z,99.99
2018-07-06T08:15:34.150Z,99.99
2018-07-06T08:16:34.054Z,99.99
2018-07-06T08:17:34.045Z,99.99
2018-07-06T08:18:34.060Z,99.99
2018-07-06T08:19:34.099Z,99.99
2018-07-06T08:21:34.175Z,99.99
2018-07-06T08:22:34.208Z,99.99
2018-07-06T08:23:34.267Z,99.99
2018-07-06T08:24:34.286Z,99.99
2018-07-06T08:25:34.354Z,99.99
2018-07-06T08:26:34.361Z,99.99
2018-07-06T08:27:34.397Z,99.99
2018-07-06T08:28:34.436Z,99.99
2018-07-06T08:29:34.472Z,99.99
2018-07-06T08:30:34.510Z,99.99
2018-07-06T08:31:34.609Z,99.99
2018-07-06T08:32:34.586Z,99.99
2018-07-06T08:33:34.624Z,99.99
2018-07-06T08:34:34.660Z,99.99
2018-07-06T08:35:34.698Z,99.99
2018-07-06T08:36:34.736Z,99.99
2018-07-06T08:37:34.772Z,99.99
2018-07-06T08:38:34.810Z,99.99
2018-07-06T08:39:34.880Z,99.99
2018-07-06T08:40:34.886Z,99.99
2018-07-06T08:41:34.923Z,99.99
2018-07-06T08:42:34.960Z,99.99
2018-07-06T08:43:34.999Z,99.99
2018-07-06T08:44:35.037Z,99.99
2018-07-06T08:45:35.074Z,99.99
2018-07-06T08:46:35.111Z,99.99
2018-07-06T08:47:35.149Z,99.99
2018-07-06T08:48:35.186Z,99.99
2018-07-06T08:49:35.224Z,99.99
2018-07-06T08:50:35.260Z,99.99
2018-07-06T08:51:35.299Z,99.99
2018-07-06T08:52:35.336Z,99.99
2018-07-06T08:53:35.375Z,99.99
2018-07-06T08:54:35.412Z,99.99
2018-07-06T08:55:35.449Z,99.99
2018-07-06T08:56:35.488Z,99.99
2018-07-06T08:57:35.527Z,99.99
2018-07-06T08:58:35.618Z,99.99
2018-07-06T08:59:35.601Z,99.99
2018-07-06T09:00:35.639Z,99.99
2018-07-06T09:01:35.677Z,99.99
2018-07-06T09:02:35.714Z,99.99
2018-07-06T09:03:35.753Z,99.99
2018-07-06T09:04:35.925Z,99.99
2018-07-06T09:05:35.849Z,99.99
2018-07-06T09:06:35.885Z,99.99
2018-07-06T09:07:35.917Z,99.99
2018-07-06T09:08:35.949Z,99.99
2018-07-06T09:09:35.982Z,99.99
2018-07-06T09:10:36.045Z,99.99
2018-07-06T09:11:36.058Z,99.99
2018-07-06T09:12:36.097Z,99.99
2018-07-06T09:13:36.151Z,99.99
2018-07-06T09:14:36.173Z,99.99
2018-07-06T09:15:36.232Z,99.99
2018-07-06T09:16:36.267Z,99.99
2018-07-06T09:17:36.815Z,99.99
2018-07-06T09:18:36.325Z,99.99
2018-07-06T09:19:36.492Z,99.99
2018-07-06T09:20:36.403Z,99.99
2018-07-06T09:21:36.441Z,99.99
2018-07-06T09:22:36.500Z,99.99
2018-07-06T09:23:36.537Z,99.99
2018-07-06T09:24:36.576Z,99.99
2018-07-06T09:25:36.977Z,99.99
2018-07-06T09:26:36.633Z,99.99
2018-07-06T09:27:37.198Z,99.99
2018-07-06T09:28:36.731Z,99.99
2018-07-06T09:29:36.752Z,99.99
2018-07-06T09:30:36.787Z,99.99
2018-07-06T09:31:37.047Z,99.99
2018-07-06T09:32:36.882Z,99.99
2018-07-06T09:33:36.923Z,99.99
2018-07-06T09:34:36.964Z,99.99
2018-07-06T09:35:37.608Z,99.99
2018-07-06T09:36:37.037Z,99.99
2018-07-06T09:37:37.075Z,99.99
2018-07-06T09:39:37.151Z,99.99
2018-07-06T09:40:37.192Z,99.99
2018-07-06T09:41:37.538Z,99.99
2018-07-06T09:42:37.268Z,99.99
2018-07-06T09:43:37.615Z,99.99
2018-07-06T09:44:37.329Z,99.99
2018-07-06T09:45:37.368Z,99.99
2018-07-06T09:46:37.424Z,99.99
2018-07-06T09:47:37.464Z,99.99
2018-07-06T09:48:37.502Z,99.99
2018-07-06T09:49:37.521Z,99.99
2018-07-06T09:50:37.562Z,99.99
2018-07-06T09:51:37.598Z,99.99
2018-07-06T09:52:37.637Z,99.99
2018-07-06T09:53:37.676Z,99.99
2018-07-06T09:54:37.715Z,99.99
2018-07-06T09:55:37.755Z,99.21
2018-07-06T09:56:37.794Z,98.78
2018-07-06T09:57:37.833Z,97.23
2018-07-06T09:58:37.872Z,95.05
2018-07-06T09:59:37.914Z,94.23
2018-07-06T10:01:37.993Z,91.56
2018-07-06T10:02:38.253Z,89.86
2018-07-06T10:03:38.069Z,89.52
2018-07-06T10:04:38.112Z,89.66
2018-07-06T10:05:38.217Z,89.70
2018-07-06T10:06:38.191Z,87.12
2018-07-06T10:07:38.249Z,86.49
2018-07-06T10:08:38.294Z,84.89
2018-07-06T10:09:38.369Z,84.70
2018-07-06T10:10:38.354Z,83.20
2018-07-06T10:11:38.395Z,83.24
2018-07-06T10:12:38.509Z,82.52
2018-07-06T10:13:38.477Z,81.65
2018-07-06T10:14:38.537Z,82.52
2018-07-06T10:15:38.561Z,83.49
2018-07-06T10:16:38.602Z,81.49
2018-07-06T10:17:38.643Z,80.56
2018-07-06T10:18:38.685Z,78.97
2018-07-06T10:19:38.804Z,80.32
2018-07-06T10:20:38.768Z,82.56
2018-07-06T10:21:38.813Z,81.78
2018-07-06T10:22:38.853Z,83.72
2018-07-06T10:23:38.894Z,83.59
2018-07-06T10:24:38.956Z,80.85
2018-07-06T10:25:39.031Z,82.21
2018-07-06T10:26:39.023Z,82.84
2018-07-06T10:27:39.069Z,79.78
2018-07-06T10:28:39.108Z,80.85
2018-07-06T10:29:39.152Z,78.71
2018-07-06T10:30:39.192Z,78.75
2018-07-06T10:31:39.235Z,79.82
2018-07-06T10:32:39.279Z,77.48
2018-07-06T10:33:39.387Z,77.29
2018-07-06T10:34:39.367Z,77.53
2018-07-06T10:35:39.408Z,78.63
2018-07-06T10:36:39.453Z,78.19
2018-07-06T10:37:39.495Z,73.84
2018-07-06T10:38:39.539Z,72.57
2018-07-06T10:39:39.701Z,71.31
2018-07-06T10:40:39.626Z,71.17
2018-07-06T10:41:39.670Z,72.05
2018-07-06T10:42:39.716Z,72.44
2018-07-06T10:43:39.758Z,72.64
2018-07-06T10:44:39.801Z,75.26
2018-07-06T10:45:39.845Z,75.36
2018-07-06T10:46:39.910Z,74.78
2018-07-06T10:47:39.933Z,74.46
2018-07-06T10:48:42.600Z,73.00
2018-07-06T10:49:40.022Z,73.35
2018-07-06T10:50:40.065Z,72.92
2018-07-06T10:51:40.110Z,75.07
2018-07-06T10:52:40.157Z,74.43
2018-07-06T10:53:40.199Z,73.94
2018-07-06T10:54:40.243Z,73.94
2018-07-06T10:55:40.288Z,72.55
2018-07-06T10:56:40.332Z,69.92
2018-07-06T10:57:40.378Z,71.25
2018-07-06T10:58:40.624Z,71.68
2018-07-06T10:59:40.468Z,70.08
2018-07-06T11:00:40.513Z,71.19
2018-07-06T11:01:40.560Z,72.23
2018-07-06T11:02:40.606Z,71.06
2018-07-06T11:03:40.653Z,65.36
2018-07-06T11:04:40.699Z,63.86
2018-07-06T11:08:06.665Z,63.40
2018-07-06T11:09:06.715Z,59.34
2018-07-06T11:11:09.374Z,58.36
2018-07-06T11:12:09.622Z,60.39
2018-07-06T11:13:09.468Z,61.21
2018-07-06T11:14:09.518Z,61.20
2018-07-06T11:15:09.566Z,58.44
2018-07-06T11:16:09.614Z,56.09
2018-07-06T11:17:09.662Z,56.41
2018-07-06T11:18:09.712Z,55.52
2018-07-06T11:19:09.775Z,53.31
2018-07-06T11:20:09.829Z,53.09
2018-07-06T11:21:09.859Z,54.66
2018-07-06T11:22:09.909Z,57.01
2018-07-06T11:23:09.959Z,57.49
2018-07-06T11:24:10.009Z,57.97
2018-07-06T11:25:10.087Z,58.53
2018-07-06T11:26:10.110Z,59.16
2018-07-06T11:27:10.160Z,57.84
2018-07-06T11:28:10.213Z,56.18
2018-07-06T11:31:10.417Z,57.43
2018-07-06T11:32:10.478Z,57.73
2018-07-06T11:33:10.464Z,58.29
2018-07-06T11:34:10.514Z,55.93
2018-07-06T11:35:10.566Z,57.74
2018-07-06T11:36:10.617Z,56.09
2018-07-06T11:37:10.669Z,55.05
2018-07-06T11:38:10.846Z,57.84
2018-07-06T11:39:10.771Z,59.06
2018-07-06T11:40:10.821Z,59.81
2018-07-06T11:41:10.874Z,58.82
2018-07-06T11:42:10.925Z,57.64
2018-07-06T11:43:10.977Z,57.57
2018-07-06T11:44:11.025Z,57.36
2018-07-06T11:45:11.106Z,52.40
2018-07-06T11:46:11.126Z,51.30
2018-07-06T11:47:11.179Z,50.16
2018-07-06T11:48:11.229Z,48.76
2018-07-06T11:49:11.280Z,50.54
2018-07-06T11:50:11.353Z,53.12
2018-07-06T11:51:11.402Z,51.74
2018-07-06T11:52:11.450Z,51.03
2018-07-06T11:53:11.485Z,50.95
2018-07-06T11:54:11.554Z,48.79
2018-07-06T11:56:11.642Z,46.33
2018-07-06T11:57:11.694Z,49.87
2018-07-06T11:58:11.755Z,47.06
2018-07-06T11:59:11.801Z,48.47
2018-07-06T12:00:11.857Z,47.63
2018-07-06T12:01:11.909Z,51.10
2018-07-06T12:02:11.961Z,56.83
2018-07-06T12:03:12.014Z,60.14
2018-07-06T12:04:12.219Z,62.43
2018-07-06T12:05:12.120Z,61.91
2018-07-06T12:06:12.179Z,64.55
2018-07-06T12:07:12.245Z,64.16
2018-07-06T12:10:12.402Z,53.06
2018-07-06T12:15:12.642Z,47.06
2018-07-06T12:16:12.691Z,46.41
2018-07-06T12:17:12.766Z,45.79
2018-07-06T12:18:12.826Z,45.15
2018-07-06T12:19:12.848Z,44.16
2018-07-06T12:20:12.900Z,44.79
2018-07-06T12:21:13.144Z,44.83
2018-07-06T12:22:13.008Z,44.04
2018-07-06T12:23:13.061Z,46.08
2018-07-06T12:24:13.113Z,47.63
2018-07-06T12:25:13.166Z,49.80
2018-07-06T12:26:13.241Z,49.70
2018-07-06T12:27:13.273Z,47.01
2018-07-06T12:28:13.328Z,45.28
2018-07-06T12:29:13.387Z,45.46
2018-07-06T12:30:13.434Z,44.73
2018-07-06T12:31:13.483Z,46.11
2018-07-06T12:32:13.538Z,44.18
2018-07-06T12:33:13.592Z,44.06
2018-07-06T12:34:13.643Z,45.01
2018-07-06T12:35:13.697Z,46.79
2018-07-06T12:36:13.748Z,49.06
2018-07-06T12:37:15.218Z,48.82
2018-07-06T12:38:13.854Z,48.39
2018-07-06T12:39:13.909Z,47.88
2018-07-06T12:40:13.974Z,46.89
2018-07-06T12:41:14.072Z,48.61
2018-07-06T12:42:14.101Z,49.77
2018-07-06T12:43:14.121Z,50.56
2018-07-06T12:44:14.170Z,46.62
2018-07-06T12:45:14.223Z,47.06
2018-07-06T12:46:14.279Z,47.90
2018-07-06T12:47:14.397Z,46.50
2018-07-06T12:48:14.380Z,50.12
2018-07-06T12:49:14.437Z,51.47
2018-07-06T12:50:14.487Z,52.50
2018-07-06T12:52:14.593Z,52.45
2018-07-06T12:53:14.646Z,53.86
2018-07-06T12:54:14.699Z,56.19
2018-07-06T12:55:14.752Z,56.23
2018-07-06T12:56:14.803Z,56.26
2018-07-06T12:57:14.855Z,53.33
2018-07-06T12:58:14.949Z,53.87
2018-07-06T12:59:15.180Z,50.21
2018-07-06T13:01:15.075Z,52.35
2018-07-06T13:03:16.305Z,53.94
2018-07-06T13:04:15.215Z,56.16
2018-07-06T13:05:15.264Z,57.09
2018-07-06T13:06:15.314Z,57.28
2018-07-06T13:07:15.368Z,54.31
2018-07-06T13:08:15.414Z,51.86
2018-07-06T13:09:15.463Z,54.72
2018-07-06T13:10:15.515Z,49.08
2018-07-06T13:11:15.564Z,44.94
2018-07-06T13:12:15.613Z,42.99
2018-07-06T13:13:15.664Z,40.69
2018-07-06T13:14:15.715Z,42.28
2018-07-06T13:15:15.769Z,43.17
2018-07-06T13:16:15.833Z,42.40
2018-07-06T13:17:15.870Z,40.92
2018-07-06T13:18:15.917Z,41.10
2018-07-06T13:19:15.969Z,43.56
2018-07-06T13:20:16.020Z,45.19
2018-07-06T13:21:16.073Z,46.37
2018-07-06T13:22:16.123Z,47.14
2018-07-06T13:23:16.174Z,46.08
2018-07-06T13:24:16.223Z,48.79
2018-07-06T13:25:16.603Z,51.00
2018-07-06T13:26:16.342Z,48.08
2018-07-06T13:27:16.396Z,47.96
2018-07-06T13:28:16.428Z,49.48
2018-07-06T13:29:16.480Z,47.31
2018-07-06T13:30:16.529Z,45.24
2018-07-06T13:31:16.578Z,43.97
2018-07-06T13:32:16.832Z,47.66
2018-07-06T13:33:16.679Z,48.89
2018-07-06T13:34:16.730Z,50.42
2018-07-06T13:35:20.212Z,52.00
2018-07-06T13:36:16.858Z,53.35
2018-07-06T13:37:16.880Z,53.03
2018-07-06T13:38:16.930Z,54.41
2018-07-06T13:39:17.016Z,51.72
2018-07-06T13:40:17.029Z,48.47
2018-07-06T13:41:19.700Z,46.10
2018-07-06T13:42:17.128Z,42.24
2018-07-06T13:43:17.178Z,43.31
2018-07-06T13:44:17.231Z,41.00
2018-07-06T13:45:17.278Z,40.15
2018-07-06T13:46:17.328Z,40.25
2018-07-06T13:47:17.378Z,41.69
2018-07-06T13:48:17.428Z,41.81
2018-07-06T13:49:17.479Z,42.38
2018-07-06T13:50:17.529Z,43.24
2018-07-06T13:51:17.581Z,43.56
2018-07-06T13:52:17.632Z,44.68
2018-07-06T13:53:17.683Z,42.50
2018-07-06T13:54:17.734Z,43.70
2018-07-06T13:55:17.786Z,45.10
2018-07-06T13:56:17.835Z,46.83
2018-07-06T13:57:17.887Z,49.07
2018-07-06T13:58:17.937Z,50.95
2018-07-06T13:59:18.202Z,53.69
2018-07-06T14:00:18.039Z,65.75
2018-07-06T14:02:18.160Z,66.27
2018-07-06T14:03:18.188Z,65.30
2018-07-06T14:04:18.235Z,64.03
2018-07-06T14:05:18.285Z,66.99
2018-07-06T14:06:18.334Z,68.93
2018-07-06T14:07:18.383Z,68.64
2018-07-06T14:08:18.429Z,66.79
2018-07-06T14:09:18.479Z,65.72
2018-07-06T14:10:18.525Z,65.56
2018-07-06T14:11:18.572Z,66.50
2018-07-06T14:12:18.637Z,70.07
2018-07-06T14:13:18.665Z,69.35
2018-07-06T14:14:18.717Z,70.45
2018-07-06T14:15:18.760Z,73.43
2018-07-06T14:16:18.804Z,73.62
2018-07-06T14:17:18.852Z,73.33
2018-07-06T14:18:18.896Z,73.52
2018-07-06T14:19:18.942Z,72.85
2018-07-06T14:20:18.987Z,72.75
2018-07-06T14:21:19.030Z,72.71
2018-07-06T14:22:19.075Z,73.00
2018-07-06T14:23:19.140Z,73.49
2018-07-06T14:24:19.163Z,74.13
2018-07-06T14:25:19.434Z,75.88
2018-07-06T14:26:19.274Z,78.17
2018-07-06T14:27:19.319Z,78.94
2018-07-06T14:28:19.353Z,79.33
2018-07-06T14:29:19.407Z,79.39
2018-07-06T14:30:19.475Z,80.65
2018-07-06T14:31:19.494Z,81.23
2018-07-06T14:32:19.535Z,83.13
2018-07-06T14:33:19.568Z,81.77
2018-07-06T14:34:19.615Z,82.70
2018-07-06T14:35:19.661Z,82.03
2018-07-06T14:36:19.701Z,82.28
2018-07-06T14:37:19.746Z,82.95
2018-07-06T14:38:19.786Z,83.44
2018-07-06T14:39:19.828Z,83.44
2018-07-06T14:40:19.884Z,83.44
2018-07-06T14:41:19.906Z,83.63
2018-07-06T14:42:19.979Z,84.41
2018-07-06T14:44:20.034Z,86.69
2018-07-06T14:45:20.057Z,86.78
2018-07-06T14:48:20.181Z,86.88
2018-07-06T14:50:20.487Z,87.36
2018-07-06T14:51:20.304Z,87.12
2018-07-06T14:52:20.343Z,86.82
2018-07-06T14:53:21.114Z,86.88
2018-07-06T14:54:20.426Z,87.07
2018-07-06T14:55:20.468Z,88.04
2018-07-06T14:56:20.507Z,88.71
2018-07-06T14:57:20.547Z,88.91
2018-07-06T14:58:20.589Z,87.85
2018-07-06T14:59:20.630Z,87.90
2018-07-06T15:00:20.668Z,88.33
2018-07-06T15:01:20.726Z,88.81
2018-07-06T15:02:20.750Z,88.91
2018-07-06T15:03:20.792Z,88.04
2018-07-06T15:04:20.830Z,88.57
2018-07-06T15:05:20.871Z,88.37
2018-07-06T15:06:20.911Z,88.85
2018-07-06T15:07:20.951Z,87.64
2018-07-06T15:08:20.990Z,86.29
2018-07-06T15:09:21.044Z,88.03
2018-07-06T15:10:21.075Z,87.35
2018-07-06T15:11:21.119Z,88.42
2018-07-06T15:12:21.217Z,86.77
2018-07-06T15:15:47.093Z,86.19
2018-07-06T15:16:47.135Z,87.64
2018-07-06T15:17:47.201Z,85.31
2018-07-06T15:18:47.214Z,85.40
2018-07-06T15:19:47.256Z,81.99
2018-07-06T15:20:47.300Z,77.68
2018-07-06T15:21:47.342Z,71.80
2018-07-06T15:22:47.382Z,68.19
2018-07-06T15:23:47.419Z,67.57
2018-07-06T15:24:47.490Z,66.63
2018-07-06T15:25:47.504Z,66.53
2018-07-06T15:26:47.547Z,65.53
2018-07-06T15:27:47.589Z,63.60
2018-07-06T15:28:47.632Z,63.12
2018-07-06T15:29:50.299Z,63.57
2018-07-06T15:30:47.721Z,64.36
2018-07-06T15:31:47.766Z,63.90
2018-07-06T15:32:47.809Z,63.05
2018-07-06T15:33:47.854Z,61.54
2018-07-06T15:34:47.899Z,60.69
2018-07-06T15:35:47.944Z,60.47
2018-07-06T15:36:47.990Z,61.19
2018-07-06T15:37:48.036Z,62.36
2018-07-06T15:38:48.084Z,62.23
2018-07-06T15:39:48.330Z,62.36
2018-07-06T15:40:48.181Z,61.29
2018-07-06T15:41:48.222Z,59.69
2018-07-06T15:42:48.267Z,61.74
2018-07-06T15:43:48.314Z,60.41
2018-07-06T15:44:48.361Z,61.22
2018-07-06T15:45:48.410Z,58.73
2018-07-06T15:46:48.456Z,57.63
2018-07-06T15:47:48.502Z,58.07
2018-07-06T15:48:48.551Z,57.95
2018-07-06T15:49:48.600Z,57.32
2018-07-06T15:50:52.079Z,55.12
2018-07-06T15:51:48.693Z,55.85
2018-07-06T15:56:09.809Z,60.14
2018-07-06T15:57:09.905Z,58.47
2018-07-06T15:58:09.903Z,57.88
2018-07-06T15:59:09.952Z,57.88
2018-07-06T16:00:10.000Z,57.68
2018-07-06T16:01:10.048Z,60.02
2018-07-06T16:02:10.097Z,60.77
2018-07-06T16:03:10.143Z,62.21
2018-07-06T16:04:10.191Z,62.63
2018-07-06T16:05:10.240Z,58.68
2018-07-06T16:06:10.290Z,58.97
2018-07-06T16:07:10.336Z,58.68
2018-07-06T16:08:10.383Z,61.04
2018-07-06T16:09:10.430Z,63.96
2018-07-06T16:10:10.481Z,65.78
2018-07-06T16:11:10.528Z,66.24
2018-07-06T16:12:10.575Z,67.02
2018-07-06T16:13:10.622Z,67.02
2018-07-06T16:14:10.726Z,67.80
2018-07-06T16:15:10.717Z,68.16
2018-07-06T16:16:10.787Z,68.64
2018-07-06T16:17:10.809Z,67.86
2018-07-06T16:18:10.854Z,66.89
2018-07-06T16:19:10.902Z,66.69
2018-07-06T16:20:10.948Z,66.50
2018-07-06T16:21:10.993Z,64.84
2018-07-06T16:22:11.039Z,62.49
2018-07-06T16:23:11.089Z,59.55
2018-07-06T16:24:11.131Z,60.76
2018-07-06T16:25:11.181Z,60.30
2018-07-06T16:26:11.225Z,59.38
2018-07-06T16:27:11.270Z,61.32
2018-07-06T16:28:11.316Z,61.87
2018-07-06T16:29:11.364Z,63.21
2018-07-06T16:30:11.409Z,64.26
2018-07-06T16:31:11.456Z,62.49
2018-07-06T16:32:11.504Z,61.02
2018-07-06T16:33:11.551Z,58.96
2018-07-06T16:34:11.597Z,59.31
2018-07-06T16:35:11.642Z,58.55
2018-07-06T16:36:11.724Z,57.87
2018-07-06T16:37:11.739Z,58.33
2018-07-06T16:38:11.783Z,58.72
2018-07-06T16:39:11.831Z,58.62
2018-07-06T16:40:11.877Z,57.87
2018-07-06T16:41:11.925Z,55.68
2018-07-06T16:42:11.972Z,55.98
2018-07-06T16:43:12.022Z,56.17
2018-07-06T16:44:12.068Z,57.56
2018-07-06T16:45:12.115Z,57.95
2018-07-06T16:46:12.161Z,58.12
2018-07-06T16:47:12.209Z,58.64
2018-07-06T16:48:12.257Z,58.15
2018-07-06T16:49:12.304Z,58.70
2018-07-06T16:50:12.351Z,60.21
2018-07-06T16:51:12.398Z,60.44
2018-07-06T16:52:12.451Z,61.33
2018-07-06T16:53:12.493Z,62.37
2018-07-06T16:54:12.541Z,62.16
2018-07-06T16:55:12.589Z,61.38
2018-07-06T16:56:12.637Z,61.48
2018-07-06T16:57:12.688Z,62.23
2018-07-06T16:58:12.729Z,62.50
2018-07-06T16:59:12.778Z,64.32
2018-07-06T17:00:12.826Z,64.45
2018-07-06T17:01:12.878Z,63.64
2018-07-06T17:02:12.919Z,61.41
2018-07-06T17:03:12.967Z,61.12
2018-07-06T17:04:13.013Z,61.18
2018-07-06T17:05:13.062Z,60.69
2018-07-06T17:06:13.110Z,60.13
2018-07-06T17:07:13.159Z,60.89
2018-07-06T17:08:13.201Z,60.50
2018-07-06T17:09:13.251Z,60.50
2018-07-06T17:10:13.297Z,60.83
2018-07-06T17:11:13.342Z,61.61
2018-07-06T17:12:16.013Z,62.10
2018-07-06T17:13:13.438Z,64.45
2018-07-06T17:14:13.485Z,65.04
2018-07-06T17:15:13.529Z,64.19
2018-07-06T17:16:13.577Z,63.18
2018-07-06T17:17:13.623Z,63.93
2018-07-06T17:18:13.670Z,64.54
2018-07-06T17:19:13.717Z,63.76
2018-07-06T17:20:13.765Z,62.79
2018-07-06T17:21:13.809Z,63.37
2018-07-06T17:22:13.858Z,62.82
2018-07-06T17:23:13.903Z,63.08
2018-07-06T17:24:13.950Z,63.96
2018-07-06T17:25:13.996Z,64.03
2018-07-06T17:26:14.042Z,64.25
2018-07-06T17:27:14.088Z,64.81
2018-07-06T17:28:14.135Z,64.42
2018-07-06T17:29:14.180Z,63.37
2018-07-06T17:30:14.226Z,64.06
2018-07-06T17:31:14.271Z,64.06
2018-07-06T17:32:14.320Z,63.83
2018-07-06T17:33:14.363Z,63.76
2018-07-06T17:34:14.423Z,64.22
2018-07-06T17:35:14.507Z,64.68
2018-07-06T17:36:14.498Z,66.41
2018-07-06T17:37:14.552Z,67.44
2018-07-06T17:38:14.607Z,68.35
2018-07-06T17:39:14.633Z,69.68
2018-07-06T17:40:15.012Z,70.82
2018-07-06T17:41:18.017Z,73.41
2018-07-06T17:42:14.765Z,73.67
2018-07-06T17:43:14.827Z,74.32
2018-07-06T17:44:14.863Z,75.48
2018-07-06T17:45:14.895Z,76.42
2018-07-06T17:46:14.939Z,80.96
2018-07-06T17:47:14.982Z,83.40
2018-07-06T17:48:15.027Z,84.63
2018-07-06T17:49:15.068Z,85.89
2018-07-06T17:50:15.111Z,87.63
2018-07-06T17:51:15.152Z,87.78
2018-07-06T17:52:15.260Z,88.07
2018-07-06T17:53:57.793Z,88.37
2018-07-06T17:54:57.837Z,87.63
2018-07-06T17:55:57.877Z,88.56
2018-07-06T17:56:58.728Z,88.46
2018-07-06T17:58:40.518Z,90.94
2018-07-06T17:59:40.558Z,92.10
2018-07-06T18:00:40.599Z,92.97
2018-07-06T18:01:40.642Z,94.18
2018-07-06T18:02:40.683Z,95.15
2018-07-06T18:03:40.723Z,96.36
2018-07-06T18:04:40.764Z,97.04
2018-07-06T18:05:40.804Z,97.42
2018-07-06T18:06:40.846Z,98.30
2018-07-06T18:07:40.888Z,99.65
2018-07-06T18:08:40.929Z,99.60
2018-07-06T18:09:40.969Z,99.99
2018-07-06T18:10:41.028Z,99.99
2018-07-06T18:11:41.050Z,99.99
2018-07-06T18:12:41.092Z,99.99
2018-07-06T18:13:41.132Z,99.99
2018-07-06T18:14:41.172Z,99.99
2018-07-06T18:15:41.214Z,99.99
2018-07-06T18:16:41.254Z,99.99
2018-07-06T18:17:41.293Z,99.99
2018-07-06T18:18:41.557Z,99.99
2018-07-06T18:19:41.393Z,99.99
2018-07-06T18:20:41.414Z,99.99
2018-07-06T18:21:41.456Z,99.99
2018-07-06T18:22:41.493Z,99.99
2018-07-06T18:23:41.534Z,99.99
2018-07-06T18:24:41.573Z,99.99
2018-07-06T18:25:41.612Z,99.99
2018-07-06T18:28:41.732Z,99.99
2018-07-06T18:29:41.773Z,99.99